Adel, Georgia
Current Conditions -  °F | °C
As of 10:58 PM on Thursday 18 Dec 2014 (Local Time) from KVAD Reporting Station
Clear Clear  
Wind Chill: 48°   Ceiling: Unl
Heat Index: 48°   Visibility: 10mi
Dew Point: 41°   Wind: 1mph
Humidity: 76%   Direction: 190°S
Pressure: 30.15"   Gusts: NA
Location:  31.14°N, 83.42°W
Report Text: KVAD 190358Z AUTO 19001KT 10SM CLR 09/05 A3015 RMK AO2 SLP213 T00910051 $
Loading
Personal Weather Stations






























Interactive Weather Map New forecast layout! Learn more

10-Day Weather Forecast

Advertisements
Track Severe Weather on mobile